sensor_id;sensor_type;location;lat;lon;timestamp;temperature;humidity
13880;DHT22;7010;48.200;16.332;2023-04-21T00:02:06;10.40;99.90
13880;DHT22;7010;48.200;16.332;2023-04-21T00:04:34;10.30;99.90
13880;DHT22;7010;48.200;16.332;2023-04-21T00:07:03;10.30;99.90
13880;DHT22;7010;48.200;16.332;2023-04-21T00:09:31;10.30;99.90
13880;DHT22;7010;48.200;16.332;2023-04-21T00:12:04;10.30;99.90
13880;DHT22;7010;48.200;16.332;2023-04-21T00:14:33;10.20;99.90
13880;DHT22;7010;48.200;16.332;2023-04-21T00:17:01;10.30;99.90
13880;DHT22;7010;48.200;16.332;2023-04-21T00:19:29;10.30;99.90
13880;DHT22;7010;48.200;16.332;2023-04-21T00:22:10;10.20;99.90
13880;DHT22;7010;48.200;16.332;2023-04-21T00:24:40;10.20;99.90
13880;DHT22;7010;48.200;16.332;2023-04-21T00:27:10;10.20;99.90
13880;DHT22;7010;48.200;16.332;2023-04-21T00:29:39;10.20;99.90
13880;DHT22;7010;48.200;16.332;2023-04-21T00:32:07;10.20;99.90
13880;DHT22;7010;48.200;16.332;2023-04-21T00:34:36;10.10;99.90
13880;DHT22;7010;48.200;16.332;2023-04-21T00:37:05;10.10;99.90
13880;DHT22;7010;48.200;16.332;2023-04-21T00:39:33;10.10;99.90
13880;DHT22;7010;48.200;16.332;2023-04-21T00:42:01;10.10;99.90
13880;DHT22;7010;48.200;16.332;2023-04-21T00:44:31;10.00;99.90
13880;DHT22;7010;48.200;16.332;2023-04-21T00:47:00;10.00;99.90
13880;DHT22;7010;48.200;16.332;2023-04-21T00:49:31;10.00;99.90
13880;DHT22;7010;48.200;16.332;2023-04-21T00:52:06;9.90;99.90
13880;DHT22;7010;48.200;16.332;2023-04-21T00:54:35;10.00;99.90
13880;DHT22;7010;48.200;16.332;2023-04-21T00:57:04;10.00;99.90
13880;DHT22;7010;48.200;16.332;2023-04-21T00:59:35;9.90;99.90
13880;DHT22;7010;48.200;16.332;2023-04-21T01:02:03;9.90;99.90
13880;DHT22;7010;48.200;16.332;2023-04-21T01:04:32;9.90;99.90
13880;DHT22;7010;48.200;16.332;2023-04-21T01:07:05;9.90;99.90
13880;DHT22;7010;48.200;16.332;2023-04-21T01:09:35;9.80;99.90
13880;DHT22;7010;48.200;16.332;2023-04-21T01:12:06;9.80;99.90
13880;DHT22;7010;48.200;16.332;2023-04-21T01:14:38;9.80;99.90
13880;DHT22;7010;48.200;16.332;2023-04-21T01:17:07;9.70;99.90
13880;DHT22;7010;48.200;16.332;2023-04-21T01:19:40;9.70;99.90
13880;DHT22;7010;48.200;16.332;2023-04-21T01:22:13;9.70;99.90
13880;DHT22;7010;48.200;16.332;2023-04-21T01:24:44;9.70;99.90
13880;DHT22;7010;48.200;16.332;2023-04-21T01:27:14;9.70;99.90
13880;DHT22;7010;48.200;16.332;2023-04-21T01:29:46;9.70;99.90
13880;DHT22;7010;48.200;16.332;2023-04-21T01:32:20;9.70;99.90
13880;DHT22;7010;48.200;16.332;2023-04-21T01:34:50;9.70;99.90
13880;DHT22;7010;48.200;16.332;2023-04-21T01:37:24;9.70;99.90
13880;DHT22;7010;48.200;16.332;2023-04-21T01:39:55;9.70;99.90
13880;DHT22;7010;48.200;16.332;2023-04-21T01:42:25;9.70;99.90
13880;DHT22;7010;48.200;16.332;2023-04-21T01:44:54;9.80;99.90
13880;DHT22;7010;48.200;16.332;2023-04-21T01:47:23;9.80;99.90
13880;DHT22;7010;48.200;16.332;2023-04-21T01:49:57;9.80;99.90
13880;DHT22;7010;48.200;16.332;2023-04-21T01:52:28;9.90;99.90
13880;DHT22;7010;48.200;16.332;2023-04-21T01:54:56;9.90;99.90
13880;DHT22;7010;48.200;16.332;2023-04-21T01:57:25;9.90;99.90
13880;DHT22;7010;48.200;16.332;2023-04-21T01:59:53;9.90;99.90
13880;DHT22;7010;48.200;16.332;2023-04-21T02:02:21;9.90;99.90
13880;DHT22;7010;48.200;16.332;2023-04-21T02:04:50;10.00;99.90
13880;DHT22;7010;48.200;16.332;2023-04-21T02:07:18;10.00;99.90
13880;DHT22;7010;48.200;16.332;2023-04-21T02:09:48;10.00;99.90
13880;DHT22;7010;48.200;16.332;2023-04-21T02:12:19;10.10;99.90
13880;DHT22;7010;48.200;16.332;2023-04-21T02:14:47;10.10;99.90
13880;DHT22;7010;48.200;16.332;2023-04-21T02:17:15;10.00;99.90
13880;DHT22;7010;48.200;16.332;2023-04-21T02:19:44;10.10;99.90
13880;DHT22;7010;48.200;16.332;2023-04-21T02:22:13;10.10;99.90
13880;DHT22;7010;48.200;16.332;2023-04-21T02:24:42;10.00;99.90
13880;DHT22;7010;48.200;16.332;2023-04-21T02:27:13;10.00;99.90
13880;DHT22;7010;48.200;16.332;2023-04-21T02:29:41;10.00;99.90
13880;DHT22;7010;48.200;16.332;2023-04-21T02:32:10;10.00;99.90
13880;DHT22;7010;48.200;16.332;2023-04-21T02:34:52;10.00;99.90
13880;DHT22;7010;48.200;16.332;2023-04-21T02:37:20;10.00;99.90
13880;DHT22;7010;48.200;16.332;2023-04-21T02:39:51;10.00;99.90
13880;DHT22;7010;48.200;16.332;2023-04-21T02:42:21;9.90;99.90
13880;DHT22;7010;48.200;16.332;2023-04-21T02:44:49;9.90;99.90
13880;DHT22;7010;48.200;16.332;2023-04-21T02:47:18;9.90;99.90
13880;DHT22;7010;48.200;16.332;2023-04-21T02:49:48;9.80;99.90
13880;DHT22;7010;48.200;16.332;2023-04-21T02:52:17;9.80;99.90
13880;DHT22;7010;48.200;16.332;2023-04-21T02:54:45;9.80;99.90
13880;DHT22;7010;48.200;16.332;2023-04-21T02:57:13;9.70;99.90
13880;DHT22;7010;48.200;16.332;2023-04-21T02:59:43;9.70;99.90
13880;DHT22;7010;48.200;16.332;2023-04-21T03:02:12;9.70;99.90
13880;DHT22;7010;48.200;16.332;2023-04-21T03:04:40;9.60;99.90
13880;DHT22;7010;48.200;16.332;2023-04-21T03:07:11;9.60;99.90
13880;DHT22;7010;48.200;16.332;2023-04-21T03:09:40;9.60;99.90
13880;DHT22;7010;48.200;16.332;2023-04-21T03:12:09;9.50;99.90
13880;DHT22;7010;48.200;16.332;2023-04-21T03:14:38;9.50;99.90
13880;DHT22;7010;48.200;16.332;2023-04-21T03:17:12;9.50;99.90
13880;DHT22;7010;48.200;16.332;2023-04-21T03:19:44;9.50;99.90
13880;DHT22;7010;48.200;16.332;2023-04-21T03:22:14;9.50;99.90
13880;DHT22;7010;48.200;16.332;2023-04-21T03:24:43;9.40;99.90
13880;DHT22;7010;48.200;16.332;2023-04-21T03:27:11;9.40;99.90
13880;DHT22;7010;48.200;16.332;2023-04-21T03:29:40;9.40;99.90
13880;DHT22;7010;48.200;16.332;2023-04-21T03:32:08;9.30;99.90
13880;DHT22;7010;48.200;16.332;2023-04-21T03:34:41;9.30;99.90
13880;DHT22;7010;48.200;16.332;2023-04-21T03:37:14;9.30;99.90
13880;DHT22;7010;48.200;16.332;2023-04-21T03:39:42;9.20;99.90
13880;DHT22;7010;48.200;16.332;2023-04-21T03:42:10;9.10;99.90
13880;DHT22;7010;48.200;16.332;2023-04-21T03:44:39;9.10;99.90
13880;DHT22;7010;48.200;16.332;2023-04-21T03:47:07;9.10;99.90
13880;DHT22;7010;48.200;16.332;2023-04-21T03:49:36;9.00;99.90
13880;DHT22;7010;48.200;16.332;2023-04-21T03:52:05;9.00;99.90
13880;DHT22;7010;48.200;16.332;2023-04-21T03:54:34;9.00;99.90
13880;DHT22;7010;48.200;16.332;2023-04-21T03:57:02;9.00;99.90
13880;DHT22;7010;48.200;16.332;2023-04-21T03:59:31;9.00;99.90
13880;DHT22;7010;48.200;16.332;2023-04-21T04:01:59;8.90;99.90
13880;DHT22;7010;48.200;16.332;2023-04-21T04:04:28;8.90;99.90
13880;DHT22;7010;48.200;16.332;2023-04-21T04:06:57;8.90;99.90
13880;DHT22;7010;48.200;16.332;2023-04-21T04:09:27;8.90;99.90
13880;DHT22;7010;48.200;16.332;2023-04-21T04:11:55;8.90;99.90
13880;DHT22;7010;48.200;16.332;2023-04-21T04:14:23;8.80;99.90
13880;DHT22;7010;48.200;16.332;2023-04-21T04:16:52;8.80;99.90
13880;DHT22;7010;48.200;16.332;2023-04-21T04:19:20;8.80;99.90
13880;DHT22;7010;48.200;16.332;2023-04-21T04:21:48;8.80;99.90
13880;DHT22;7010;48.200;16.332;2023-04-21T04:24:17;8.80;99.90
13880;DHT22;7010;48.200;16.332;2023-04-21T04:26:47;8.80;99.90
13880;DHT22;7010;48.200;16.332;2023-04-21T04:29:15;8.80;99.90
13880;DHT22;7010;48.200;16.332;2023-04-21T04:31:44;8.80;99.90
13880;DHT22;7010;48.200;16.332;2023-04-21T04:34:13;8.80;99.90
13880;DHT22;7010;48.200;16.332;2023-04-21T04:36:42;8.80;99.90
13880;DHT22;7010;48.200;16.332;2023-04-21T04:39:14;8.80;99.90
13880;DHT22;7010;48.200;16.332;2023-04-21T04:41:49;8.80;99.90
13880;DHT22;7010;48.200;16.332;2023-04-21T04:44:20;8.80;99.90
13880;DHT22;7010;48.200;16.332;2023-04-21T04:46:49;8.80;99.90
13880;DHT22;7010;48.200;16.332;2023-04-21T04:49:20;8.90;99.90
13880;DHT22;7010;48.200;16.332;2023-04-21T04:51:50;8.90;99.90
13880;DHT22;7010;48.200;16.332;2023-04-21T04:54:18;8.90;99.90
13880;DHT22;7010;48.200;16.332;2023-04-21T04:56:48;8.90;99.90
13880;DHT22;7010;48.200;16.332;2023-04-21T04:59:17;9.00;99.90
13880;DHT22;7010;48.200;16.332;2023-04-21T05:01:57;9.00;99.90
13880;DHT22;7010;48.200;16.332;2023-04-21T05:04:25;9.00;99.90
13880;DHT22;7010;48.200;16.332;2023-04-21T05:06:54;9.10;99.90
13880;DHT22;7010;48.200;16.332;2023-04-21T05:09:27;9.10;99.90
13880;DHT22;7010;48.200;16.332;2023-04-21T05:12:09;9.20;99.90
13880;DHT22;7010;48.200;16.332;2023-04-21T05:14:40;9.20;99.90
13880;DHT22;7010;48.200;16.332;2023-04-21T05:17:09;9.20;99.90
13880;DHT22;7010;48.200;16.332;2023-04-21T05:19:38;9.30;99.90
13880;DHT22;7010;48.200;16.332;2023-04-21T05:22:09;9.30;99.90
13880;DHT22;7010;48.200;16.332;2023-04-21T05:24:48;9.40;99.90
13880;DHT22;7010;48.200;16.332;2023-04-21T05:27:20;9.50;99.90
13880;DHT22;7010;48.200;16.332;2023-04-21T05:29:48;9.50;99.90
13880;DHT22;7010;48.200;16.332;2023-04-21T05:32:17;9.60;99.90
13880;DHT22;7010;48.200;16.332;2023-04-21T05:34:48;9.60;99.90
13880;DHT22;7010;48.200;16.332;2023-04-21T05:37:16;9.70;99.90
13880;DHT22;7010;48.200;16.332;2023-04-21T05:39:48;9.70;99.90
13880;DHT22;7010;48.200;16.332;2023-04-21T05:42:16;9.80;99.90
13880;DHT22;7010;48.200;16.332;2023-04-21T05:44:46;9.80;99.90
13880;DHT22;7010;48.200;16.332;2023-04-21T05:47:15;9.80;99.90
13880;DHT22;7010;48.200;16.332;2023-04-21T05:49:50;9.90;99.90
13880;DHT22;7010;48.200;16.332;2023-04-21T05:52:27;9.90;99.90
13880;DHT22;7010;48.200;16.332;2023-04-21T05:54:56;10.00;99.90
13880;DHT22;7010;48.200;16.332;2023-04-21T05:57:25;10.10;99.90
13880;DHT22;7010;48.200;16.332;2023-04-21T05:59:55;10.20;99.90
13880;DHT22;7010;48.200;16.332;2023-04-21T06:02:23;10.30;99.90
13880;DHT22;7010;48.200;16.332;2023-04-21T06:04:52;10.30;99.90
13880;DHT22;7010;48.200;16.332;2023-04-21T06:07:21;10.40;99.90
13880;DHT22;7010;48.200;16.332;2023-04-21T06:09:49;10.50;99.90
13880;DHT22;7010;48.200;16.332;2023-04-21T06:13:39;10.50;99.90
13880;DHT22;7010;48.200;16.332;2023-04-21T06:15:32;10.60;99.90
13880;DHT22;7010;48.200;16.332;2023-04-21T06:18:01;10.70;99.90
13880;DHT22;7010;48.200;16.332;2023-04-21T06:20:40;10.80;99.90
13880;DHT22;7010;48.200;16.332;2023-04-21T06:23:08;10.80;99.90
13880;DHT22;7010;48.200;16.332;2023-04-21T06:25:37;11.00;99.90
13880;DHT22;7010;48.200;16.332;2023-04-21T06:28:05;11.00;99.90
13880;DHT22;7010;48.200;16.332;2023-04-21T06:30:35;11.10;99.90
13880;DHT22;7010;48.200;16.332;2023-04-21T06:33:04;11.20;99.90
13880;DHT22;7010;48.200;16.332;2023-04-21T06:35:32;11.20;99.90
13880;DHT22;7010;48.200;16.332;2023-04-21T06:38:01;11.30;99.90
13880;DHT22;7010;48.200;16.332;2023-04-21T06:40:29;11.40;99.90
13880;DHT22;7010;48.200;16.332;2023-04-21T06:43:09;11.50;99.90
13880;DHT22;7010;48.200;16.332;2023-04-21T06:45:49;11.50;99.90
13880;DHT22;7010;48.200;16.332;2023-04-21T06:48:27;11.60;99.90
13880;DHT22;7010;48.200;16.332;2023-04-21T06:50:56;11.70;99.90
13880;DHT22;7010;48.200;16.332;2023-04-21T06:53:24;11.80;99.90
13880;DHT22;7010;48.200;16.332;2023-04-21T06:55:53;12.00;99.90
13880;DHT22;7010;48.200;16.332;2023-04-21T06:58:24;12.10;99.90
13880;DHT22;7010;48.200;16.332;2023-04-21T07:00:54;12.20;99.90
13880;DHT22;7010;48.200;16.332;2023-04-21T07:03:22;12.30;99.90
13880;DHT22;7010;48.200;16.332;2023-04-21T07:05:51;12.30;99.90
13880;DHT22;7010;48.200;16.332;2023-04-21T07:08:19;12.50;99.90
13880;DHT22;7010;48.200;16.332;2023-04-21T07:10:48;12.60;99.90
13880;DHT22;7010;48.200;16.332;2023-04-21T07:13:16;12.70;99.90
13880;DHT22;7010;48.200;16.332;2023-04-21T07:15:44;12.90;99.90
13880;DHT22;7010;48.200;16.332;2023-04-21T07:18:15;13.10;99.90
13880;DHT22;7010;48.200;16.332;2023-04-21T07:20:43;13.20;99.90
13880;DHT22;7010;48.200;16.332;2023-04-21T07:23:12;13.40;99.90
13880;DHT22;7010;48.200;16.332;2023-04-21T07:25:46;13.60;99.90
13880;DHT22;7010;48.200;16.332;2023-04-21T07:28:26;13.70;99.90
13880;DHT22;7010;48.200;16.332;2023-04-21T07:30:54;13.80;99.90
13880;DHT22;7010;48.200;16.332;2023-04-21T07:33:24;14.00;99.90
13880;DHT22;7010;48.200;16.332;2023-04-21T07:35:55;14.20;99.90
13880;DHT22;7010;48.200;16.332;2023-04-21T07:38:24;14.40;99.90
13880;DHT22;7010;48.200;16.332;2023-04-21T07:40:52;14.60;99.90
13880;DHT22;7010;48.200;16.332;2023-04-21T07:43:20;14.70;99.90
13880;DHT22;7010;48.200;16.332;2023-04-21T07:45:49;14.90;99.90
13880;DHT22;7010;48.200;16.332;2023-04-21T07:48:18;15.10;99.90
13880;DHT22;7010;48.200;16.332;2023-04-21T07:50:48;15.20;99.90
13880;DHT22;7010;48.200;16.332;2023-04-21T07:53:17;15.40;99.90
13880;DHT22;7010;48.200;16.332;2023-04-21T07:55:46;15.60;99.90
13880;DHT22;7010;48.200;16.332;2023-04-21T07:58:14;15.80;99.90
13880;DHT22;7010;48.200;16.332;2023-04-21T08:00:47;15.90;99.90
13880;DHT22;7010;48.200;16.332;2023-04-21T08:03:18;16.00;99.90
13880;DHT22;7010;48.200;16.332;2023-04-21T08:05:54;16.20;99.90
13880;DHT22;7010;48.200;16.332;2023-04-21T08:08:23;16.70;99.90
13880;DHT22;7010;48.200;16.332;2023-04-21T08:10:52;17.00;99.90
13880;DHT22;7010;48.200;16.332;2023-04-21T08:13:31;17.30;99.90
13880;DHT22;7010;48.200;16.332;2023-04-21T08:15:59;18.00;99.90
13880;DHT22;7010;48.200;16.332;2023-04-21T08:18:28;18.40;99.90
13880;DHT22;7010;48.200;16.332;2023-04-21T08:20:58;18.80;99.90
13880;DHT22;7010;48.200;16.332;2023-04-21T08:23:27;19.20;99.90
13880;DHT22;7010;48.200;16.332;2023-04-21T08:25:58;19.20;99.90
13880;DHT22;7010;48.200;16.332;2023-04-21T08:28:26;19.30;99.90
13880;DHT22;7010;48.200;16.332;2023-04-21T08:30:54;19.50;99.90
13880;DHT22;7010;48.200;16.332;2023-04-21T08:33:23;19.60;99.90
13880;DHT22;7010;48.200;16.332;2023-04-21T08:35:51;20.10;99.80
13880;DHT22;7010;48.200;16.332;2023-04-21T08:38:41;20.60;98.50
13880;DHT22;7010;48.200;16.332;2023-04-21T08:41:33;21.30;95.00
13880;DHT22;7010;48.200;16.332;2023-04-21T08:44:01;21.30;93.80
13880;DHT22;7010;48.200;16.332;2023-04-21T08:46:30;21.20;91.20
13880;DHT22;7010;48.200;16.332;2023-04-21T08:49:00;21.10;90.00
13880;DHT22;7010;48.200;16.332;2023-04-21T08:51:28;20.90;91.20
13880;DHT22;7010;48.200;16.332;2023-04-21T08:53:59;20.90;91.20
13880;DHT22;7010;48.200;16.332;2023-04-21T08:56:27;20.80;91.00
13880;DHT22;7010;48.200;16.332;2023-04-21T08:58:55;21.00;91.50
13880;DHT22;7010;48.200;16.332;2023-04-21T09:01:23;21.10;90.90
13880;DHT22;7010;48.200;16.332;2023-04-21T09:03:52;21.00;92.00
13880;DHT22;7010;48.200;16.332;2023-04-21T09:06:21;21.20;92.50
13880;DHT22;7010;48.200;16.332;2023-04-21T09:08:59;21.40;91.90
13880;DHT22;7010;48.200;16.332;2023-04-21T09:11:32;21.80;91.80
13880;DHT22;7010;48.200;16.332;2023-04-21T09:14:00;22.30;91.20
13880;DHT22;7010;48.200;16.332;2023-04-21T09:16:31;22.70;89.70
13880;DHT22;7010;48.200;16.332;2023-04-21T09:19:01;22.80;86.90
13880;DHT22;7010;48.200;16.332;2023-04-21T09:21:42;23.00;84.20
13880;DHT22;7010;48.200;16.332;2023-04-21T09:24:13;23.10;83.60
13880;DHT22;7010;48.200;16.332;2023-04-21T09:26:48;23.10;82.60
13880;DHT22;7010;48.200;16.332;2023-04-21T09:30:07;23.00;82.10
13880;DHT22;7010;48.200;16.332;2023-04-21T09:32:36;22.90;82.40
13880;DHT22;7010;48.200;16.332;2023-04-21T09:35:06;23.10;81.60
13880;DHT22;7010;48.200;16.332;2023-04-21T09:37:36;23.10;81.90
13880;DHT22;7010;48.200;16.332;2023-04-21T09:40:07;23.10;81.20
13880;DHT22;7010;48.200;16.332;2023-04-21T09:42:35;22.80;81.30
13880;DHT22;7010;48.200;16.332;2023-04-21T09:45:07;22.60;81.50
13880;DHT22;7010;48.200;16.332;2023-04-21T09:47:49;22.20;81.00
13880;DHT22;7010;48.200;16.332;2023-04-21T09:50:20;21.90;82.30
13880;DHT22;7010;48.200;16.332;2023-04-21T09:53:13;21.20;80.60
13880;DHT22;7010;48.200;16.332;2023-04-21T09:55:48;21.10;82.10
13880;DHT22;7010;48.200;16.332;2023-04-21T09:58:22;21.20;82.50
13880;DHT22;7010;48.200;16.332;2023-04-21T10:00:56;21.50;83.00
13880;DHT22;7010;48.200;16.332;2023-04-21T10:03:26;22.50;80.00
13880;DHT22;7010;48.200;16.332;2023-04-21T10:05:57;23.20;78.60
13880;DHT22;7010;48.200;16.332;2023-04-21T10:08:30;23.70;73.80
13880;DHT22;7010;48.200;16.332;2023-04-21T10:11:01;23.80;73.40
13880;DHT22;7010;48.200;16.332;2023-04-21T10:13:33;24.10;74.40
13880;DHT22;7010;48.200;16.332;2023-04-21T10:16:03;24.50;72.60
13880;DHT22;7010;48.200;16.332;2023-04-21T10:18:35;25.00;70.80
13880;DHT22;7010;48.200;16.332;2023-04-21T10:21:06;25.10;70.80
13880;DHT22;7010;48.200;16.332;2023-04-21T10:23:38;24.90;69.20
13880;DHT22;7010;48.200;16.332;2023-04-21T10:26:12;24.90;71.10
13880;DHT22;7010;48.200;16.332;2023-04-21T10:28:46;25.20;70.00
13880;DHT22;7010;48.200;16.332;2023-04-21T10:31:19;25.50;69.80
13880;DHT22;7010;48.200;16.332;2023-04-21T10:34:18;25.60;66.90
13880;DHT22;7010;48.200;16.332;2023-04-21T10:37:10;25.10;63.40
13880;DHT22;7010;48.200;16.332;2023-04-21T10:39:59;25.10;64.90
13880;DHT22;7010;48.200;16.332;2023-04-21T10:42:33;24.50;63.90
13880;DHT22;7010;48.200;16.332;2023-04-21T10:45:11;24.50;63.10
13880;DHT22;7010;48.200;16.332;2023-04-21T10:47:49;24.80;65.90
13880;DHT22;7010;48.200;16.332;2023-04-21T10:50:23;25.20;67.40
13880;DHT22;7010;48.200;16.332;2023-04-21T10:52:57;25.60;63.30
13880;DHT22;7010;48.200;16.332;2023-04-21T10:55:28;25.80;67.20
13880;DHT22;7010;48.200;16.332;2023-04-21T10:58:02;25.90;61.80
13880;DHT22;7010;48.200;16.332;2023-04-21T11:00:31;26.10;61.60
13880;DHT22;7010;48.200;16.332;2023-04-21T11:03:01;26.20;63.80
13880;DHT22;7010;48.200;16.332;2023-04-21T11:05:35;26.30;63.00
13880;DHT22;7010;48.200;16.332;2023-04-21T11:08:12;25.90;61.20
13880;DHT22;7010;48.200;16.332;2023-04-21T11:13:29;25.70;63.60
13880;DHT22;7010;48.200;16.332;2023-04-21T11:16:03;25.80;64.20
13880;DHT22;7010;48.200;16.332;2023-04-21T11:18:39;25.60;60.00
13880;DHT22;7010;48.200;16.332;2023-04-21T11:21:12;25.30;60.90
13880;DHT22;7010;48.200;16.332;2023-04-21T11:23:51;25.50;62.50
13880;DHT22;7010;48.200;16.332;2023-04-21T11:26:30;25.70;60.70
13880;DHT22;7010;48.200;16.332;2023-04-21T11:29:04;25.50;58.10
13880;DHT22;7010;48.200;16.332;2023-04-21T11:31:33;25.60;58.90
13880;DHT22;7010;48.200;16.332;2023-04-21T11:34:03;25.90;59.10
13880;DHT22;7010;48.200;16.332;2023-04-21T11:36:32;26.40;58.20
13880;DHT22;7010;48.200;16.332;2023-04-21T11:39:03;26.50;58.00
13880;DHT22;7010;48.200;16.332;2023-04-21T11:41:33;26.60;57.40
13880;DHT22;7010;48.200;16.332;2023-04-21T11:44:03;26.70;56.50
13880;DHT22;7010;48.200;16.332;2023-04-21T11:46:32;26.70;56.30
13880;DHT22;7010;48.200;16.332;2023-04-21T11:49:04;26.70;53.40
13880;DHT22;7010;48.200;16.332;2023-04-21T11:51:33;26.70;53.60
13880;DHT22;7010;48.200;16.332;2023-04-21T11:54:03;26.70;53.20
13880;DHT22;7010;48.200;16.332;2023-04-21T11:56:34;26.30;53.10
13880;DHT22;7010;48.200;16.332;2023-04-21T11:59:08;25.80;52.30
13880;DHT22;7010;48.200;16.332;2023-04-21T12:01:42;25.50;52.90
13880;DHT22;7010;48.200;16.332;2023-04-21T12:04:13;25.70;53.30
13880;DHT22;7010;48.200;16.332;2023-04-21T12:06:43;25.90;52.90
13880;DHT22;7010;48.200;16.332;2023-04-21T12:09:16;26.00;50.00
13880;DHT22;7010;48.200;16.332;2023-04-21T12:11:47;26.00;50.60
13880;DHT22;7010;48.200;16.332;2023-04-21T12:14:19;26.10;50.50
13880;DHT22;7010;48.200;16.332;2023-04-21T12:16:48;26.30;51.60
13880;DHT22;7010;48.200;16.332;2023-04-21T12:19:24;26.20;51.10
13880;DHT22;7010;48.200;16.332;2023-04-21T12:21:53;26.00;47.70
13880;DHT22;7010;48.200;16.332;2023-04-21T12:24:22;25.80;49.50
13880;DHT22;7010;48.200;16.332;2023-04-21T12:26:50;25.70;49.50
13880;DHT22;7010;48.200;16.332;2023-04-21T12:29:20;25.80;49.70
13880;DHT22;7010;48.200;16.332;2023-04-21T12:31:48;25.80;47.80
13880;DHT22;7010;48.200;16.332;2023-04-21T12:34:16;25.40;49.40
13880;DHT22;7010;48.200;16.332;2023-04-21T12:36:45;25.40;48.00
13880;DHT22;7010;48.200;16.332;2023-04-21T12:39:13;25.40;49.90
13880;DHT22;7010;48.200;16.332;2023-04-21T12:41:43;25.50;52.20
13880;DHT22;7010;48.200;16.332;2023-04-21T12:44:11;25.70;50.60
13880;DHT22;7010;48.200;16.332;2023-04-21T12:46:41;25.80;48.70
13880;DHT22;7010;48.200;16.332;2023-04-21T12:49:09;25.20;49.60
13880;DHT22;7010;48.200;16.332;2023-04-21T12:51:38;24.90;49.70
13880;DHT22;7010;48.200;16.332;2023-04-21T12:54:06;25.10;48.30
13880;DHT22;7010;48.200;16.332;2023-04-21T12:56:34;25.20;48.70
13880;DHT22;7010;48.200;16.332;2023-04-21T12:59:02;25.20;49.50
13880;DHT22;7010;48.200;16.332;2023-04-21T13:01:30;25.00;48.30
13880;DHT22;7010;48.200;16.332;2023-04-21T13:04:00;24.90;48.90
13880;DHT22;7010;48.200;16.332;2023-04-21T13:06:29;24.80;49.30
13880;DHT22;7010;48.200;16.332;2023-04-21T13:08:58;24.40;49.70
13880;DHT22;7010;48.200;16.332;2023-04-21T13:11:27;24.40;50.40
13880;DHT22;7010;48.200;16.332;2023-04-21T13:13:55;24.40;49.40
13880;DHT22;7010;48.200;16.332;2023-04-21T13:16:24;24.50;50.20
13880;DHT22;7010;48.200;16.332;2023-04-21T13:18:55;24.30;49.90
13880;DHT22;7010;48.200;16.332;2023-04-21T13:21:25;23.80;48.50
13880;DHT22;7010;48.200;16.332;2023-04-21T13:23:53;23.90;50.40
13880;DHT22;7010;48.200;16.332;2023-04-21T13:26:22;24.10;51.10
13880;DHT22;7010;48.200;16.332;2023-04-21T13:28:50;24.10;50.80
13880;DHT22;7010;48.200;16.332;2023-04-21T13:31:18;24.20;51.70
13880;DHT22;7010;48.200;16.332;2023-04-21T13:33:46;24.30;51.90
13880;DHT22;7010;48.200;16.332;2023-04-21T13:36:16;24.40;50.30
13880;DHT22;7010;48.200;16.332;2023-04-21T13:38:46;24.60;50.20
13880;DHT22;7010;48.200;16.332;2023-04-21T13:41:14;24.70;51.10
13880;DHT22;7010;48.200;16.332;2023-04-21T13:43:42;24.70;50.60
13880;DHT22;7010;48.200;16.332;2023-04-21T13:46:10;24.50;51.50
13880;DHT22;7010;48.200;16.332;2023-04-21T13:48:40;24.50;50.80
13880;DHT22;7010;48.200;16.332;2023-04-21T13:51:08;24.50;50.50
13880;DHT22;7010;48.200;16.332;2023-04-21T13:53:37;24.50;50.70
13880;DHT22;7010;48.200;16.332;2023-04-21T13:56:06;24.20;50.10
13880;DHT22;7010;48.200;16.332;2023-04-21T13:58:35;24.20;50.80
13880;DHT22;7010;48.200;16.332;2023-04-21T14:01:04;24.10;50.90
13880;DHT22;7010;48.200;16.332;2023-04-21T14:03:32;24.10;51.90
13880;DHT22;7010;48.200;16.332;2023-04-21T14:06:01;24.00;51.40
13880;DHT22;7010;48.200;16.332;2023-04-21T14:08:29;23.90;52.40
13880;DHT22;7010;48.200;16.332;2023-04-21T14:10:57;24.00;51.10
13880;DHT22;7010;48.200;16.332;2023-04-21T14:13:27;23.90;53.10
13880;DHT22;7010;48.200;16.332;2023-04-21T14:16:07;23.90;52.40
13880;DHT22;7010;48.200;16.332;2023-04-21T14:18:36;23.70;52.30
13880;DHT22;7010;48.200;16.332;2023-04-21T14:21:10;23.70;52.60
13880;DHT22;7010;48.200;16.332;2023-04-21T14:23:38;23.50;51.20
13880;DHT22;7010;48.200;16.332;2023-04-21T14:26:06;23.50;52.50
13880;DHT22;7010;48.200;16.332;2023-04-21T14:28:36;23.50;52.20
13880;DHT22;7010;48.200;16.332;2023-04-21T14:31:04;23.40;49.40
13880;DHT22;7010;48.200;16.332;2023-04-21T14:33:32;23.40;50.10
13880;DHT22;7010;48.200;16.332;2023-04-21T14:36:01;23.30;50.60
13880;DHT22;7010;48.200;16.332;2023-04-21T14:38:29;23.20;50.90
13880;DHT22;7010;48.200;16.332;2023-04-21T14:40:57;23.10;51.60
13880;DHT22;7010;48.200;16.332;2023-04-21T14:43:25;23.00;51.10
13880;DHT22;7010;48.200;16.332;2023-04-21T14:45:55;22.80;51.30
13880;DHT22;7010;48.200;16.332;2023-04-21T14:48:23;22.90;52.40
13880;DHT22;7010;48.200;16.332;2023-04-21T14:50:51;22.90;51.60
13880;DHT22;7010;48.200;16.332;2023-04-21T14:53:19;22.90;52.10
13880;DHT22;7010;48.200;16.332;2023-04-21T14:55:47;22.80;52.00
13880;DHT22;7010;48.200;16.332;2023-04-21T14:58:18;22.70;51.80
13880;DHT22;7010;48.200;16.332;2023-04-21T15:00:46;22.60;52.70
13880;DHT22;7010;48.200;16.332;2023-04-21T15:03:16;22.40;52.50
13880;DHT22;7010;48.200;16.332;2023-04-21T15:05:45;22.20;52.50
13880;DHT22;7010;48.200;16.332;2023-04-21T15:08:13;22.20;54.00
13880;DHT22;7010;48.200;16.332;2023-04-21T15:10:44;22.10;54.60
13880;DHT22;7010;48.200;16.332;2023-04-21T15:13:13;22.10;55.00
13880;DHT22;7010;48.200;16.332;2023-04-21T15:15:41;22.10;54.10
13880;DHT22;7010;48.200;16.332;2023-04-21T15:18:10;22.00;54.00
13880;DHT22;7010;48.200;16.332;2023-04-21T15:20:39;22.10;54.40
13880;DHT22;7010;48.200;16.332;2023-04-21T15:23:11;21.90;54.70
13880;DHT22;7010;48.200;16.332;2023-04-21T15:25:40;21.70;54.10
13880;DHT22;7010;48.200;16.332;2023-04-21T15:28:08;21.60;55.60
13880;DHT22;7010;48.200;16.332;2023-04-21T15:30:37;21.50;55.90
13880;DHT22;7010;48.200;16.332;2023-04-21T15:33:05;21.50;56.10
13880;DHT22;7010;48.200;16.332;2023-04-21T15:35:33;21.50;56.40
13880;DHT22;7010;48.200;16.332;2023-04-21T15:38:03;21.50;55.80
13880;DHT22;7010;48.200;16.332;2023-04-21T15:40:32;21.50;56.20
13880;DHT22;7010;48.200;16.332;2023-04-21T15:43:09;21.40;55.50
13880;DHT22;7010;48.200;16.332;2023-04-21T15:45:37;21.40;56.30
13880;DHT22;7010;48.200;16.332;2023-04-21T15:48:07;21.30;56.10
13880;DHT22;7010;48.200;16.332;2023-04-21T15:50:35;21.10;55.90
13880;DHT22;7010;48.200;16.332;2023-04-21T15:53:05;21.10;56.50
13880;DHT22;7010;48.200;16.332;2023-04-21T15:55:34;20.90;56.70
13880;DHT22;7010;48.200;16.332;2023-04-21T15:58:02;20.80;57.50
13880;DHT22;7010;48.200;16.332;2023-04-21T16:00:31;20.80;57.80